Have a Safe July 4th! 

Flight Track Log - Related Links

Times and Time Zones

All times are in EDT time to prevent confusion due to time zone crossing. See the VNR109 flight status page for this flight to view local times or setup timezone preferences in your user account.

Time Position Orientation Groundspeed Altitude Reporting Facility
EDT Latitude Longitude Course Direction KTS MPH feet Rate Location/Type
Sun 04:56:17 PM 33.4194 -83.1353 169° South 208 239 7,300  Level Atlanta Center
Sun 04:57:16 PM 33.3586 -83.1211 169° South 208 239 9,100 1,866 Climbing Atlanta Center
Sun 04:58:16 PM 33.2875 -83.1044 172° South 229 264 11,000 1,850 Climbing Atlanta Center
Sun 04:59:16 PM 33.2167 -83.0928 171° South 249 287 12,800 1,800 Climbing Atlanta Center
Sun 05:00:16 PM 33.1433 -83.0786 169° South 261 300 14,600 1,800 Climbing Atlanta Center
Sun 05:01:16 PM 33.0744 -83.0622 171° South 261 300 16,400 1,750 Climbing Atlanta Center
Sun 05:02:16 PM 33.0011 -83.0481 172° South 261 300 18,100 1,750 Climbing Atlanta Center
Sun 05:03:16 PM 32.9281 -83.0364 168° South 261 300 19,900 1,700 Climbing Atlanta Center
Sun 05:04:16 PM 32.8528 -83.0175 172° South 261 300 21,500 1,500 Climbing Atlanta Center
Sun 05:05:16 PM 32.7858 -83.0061 169° South 271 312 22,900 750 Climbing Atlanta Center
Sun 05:06:16 PM 32.6958 -82.9850 171° South 295 339 23,000 50 Climbing Atlanta Center
Sun 05:07:16 PM 32.6019 -82.9664 171° South 327 376 23,000 500 Level Atlanta Center
Sun 05:08:16 PM 32.5100 -82.9500 170° South 343 395 24,000 1,150 Climbing Atlanta Center
Sun 05:09:16 PM 32.4219 -82.9317 169° South 336 387 25,300 1,150 Climbing Atlanta Center
Sun 05:10:16 PM 32.3406 -82.9128 171° South 316 364 26,300 750 Climbing Atlanta Center
Sun 05:11:16 PM 32.2569 -82.8967 169° South 310 357 26,800 579 Climbing Atlanta Center
Sun 05:12:10 PM 32.1708 -82.8778 171° South 309 356 27,400 632 Climbing Jacksonville Center
Sun 05:13:10 PM 32.0747 -82.8606 170° South 330 380 28,000 300 Climbing Jacksonville Center
Sun 05:14:10 PM 31.9725 -82.8386 169° South 351 404 28,000  Level Jacksonville Center
Sun 05:15:10 PM 31.8847 -82.8192 170° South 362 417 28,000  Level Jacksonville Center
Sun 05:16:10 PM 31.7781 -82.7972 171° South 376 433 28,000  Level Jacksonville Center
Sun 05:17:10 PM 31.6694 -82.7778 171° South 387 445 28,000  Level Jacksonville Center
Sun 05:18:10 PM 31.5631 -82.7583 170° South 392 451 28,000  Level Jacksonville Center
Sun 05:19:10 PM 31.4567 -82.7367 170° South 392 451 28,000  Level Jacksonville Center
Sun 05:20:10 PM 31.3500 -82.7150 170° South 392 451 28,000  Level Jacksonville Center
Sun 05:21:10 PM 31.2414 -82.6933 171° South 392 451 28,000  Level Jacksonville Center
Sun 05:22:10 PM 31.1350 -82.6742 172° South 392 451 28,000 -150 Level Jacksonville Center
Sun 05:23:10 PM 31.0283 -82.6575 169° South 392 451 27,700 -450 Descending Jacksonville Center
Sun 05:24:10 PM 30.9197 -82.6336 172° South 392 451 27,100 -650 Descending Jacksonville Center
Sun 05:25:10 PM 30.8092 -82.6144 170° South 392 451 26,400 -550 Descending Jacksonville Center
Sun 05:26:10 PM 30.7025 -82.5931 171° South 392 451 26,000 -200 Descending Jacksonville Center
Sun 05:27:10 PM 30.5961 -82.5739 170° South 392 451 26,000  Level Jacksonville Center
Sun 05:28:10 PM 30.4894 -82.5528 169° South 392 451 26,000 -500 Level Jacksonville Center
Sun 05:29:10 PM 30.3831 -82.5289 170° South 392 451 25,000 -1,050 Descending Jacksonville Center
Sun 05:30:10 PM 30.2806 -82.5078 169° South 387 445 23,900 -1,050 Descending Jacksonville Center
Sun 05:31:10 PM 30.1781 -82.4842 169° South 387 445 22,900 -1,050 Descending Jacksonville Center
Sun 05:32:10 PM 30.0800 -82.4628 169° South 376 433 21,800 -1,150 Descending Jacksonville Center
Sun 05:33:10 PM 29.9714 -82.4394 168° South 362 417 20,600 -1,100 Descending Jacksonville Center
Sun 05:34:10 PM 29.8711 -82.4158 171° South 362 417 19,600 -800 Descending Jacksonville Center
Sun 05:35:10 PM 29.7853 -82.3994 170° South 362 417 19,000 -300 Descending Jacksonville Center
Sun 05:36:10 PM 29.6872 -82.3786 169° South 362 417 19,000  Level Jacksonville Center
Sun 05:37:10 PM 29.5911 -82.3575 170° South 362 417 19,000  Level Jacksonville Center
Sun 05:38:10 PM 29.4950 -82.3389 170° South 356 410 19,000  Level Jacksonville Center
Sun 05:39:10 PM 29.3947 -82.3181 169° South 356 410 19,000  Level Jacksonville Center
Sun 05:40:10 PM 29.2986 -82.2972 169° South 356 410 19,000 -50 Level Jacksonville Center
Sun 05:41:10 PM 29.2025 -82.2764 173° South 356 410 18,900 -500 Descending Jacksonville Center
Sun 05:42:10 PM 29.1083 -82.2628 178° South 351 404 18,000 -850 Descending Jacksonville Center
Sun 05:43:10 PM 29.0186 -82.2586 183° South 345 397 17,200 -1,550 Descending Jacksonville Center
Sun 05:44:10 PM 28.9228 -82.2639 178° South 345 397 14,900 -2,200 Descending Jacksonville Center
Sun 05:45:10 PM 28.8350 -82.2597 178° South 340 391 12,800 -1,200 Descending Jacksonville Center
Sun 05:47:25 PM 28.6333 -82.2500 199° South 310 357 11,000 -949 Descending Tampa TRACON
Sun 05:48:26 PM 28.5500 -82.2833 246° West 311 358 9,700 -1,438 Descending Tampa TRACON
Sun 05:49:26 PM 28.5167 -82.3667 249° West 313 360 8,100 -1,524 Descending Tampa TRACON
Sun 05:50:32 PM 28.4833 -82.4667 246° West 303 349 6,500 -1,100 Descending Tampa TRACON
Sun 05:51:26 PM 28.4500 -82.5500 246° West 303 349 5,900 -1,000 Descending Tampa TRACON
Sun 05:52:32 PM 28.4167 -82.6333 230° Southwest 286 329 4,500 -905 Descending Tampa TRACON
Sun 05:53:32 PM 28.3667 -82.7000 192° South 257 296 4,000 -238 Descending Tampa TRACON
Sun 05:54:38 PM 28.3000 -82.7167 192° South 226 260 4,000  Level Tampa TRACON
Sun 05:55:44 PM 28.2333 -82.7333 180° South 222 255 4,000 -56 Level Tampa TRACON
Sun 05:56:26 PM 28.1833 -82.7333 192° South 221 254 3,900 -474 Descending Tampa TRACON
Sun 05:57:38 PM 28.1167 -82.7500 192° South 236 272 3,100 -619 Descending Tampa TRACON
Sun 05:58:32 PM 28.0500 -82.7667 164° South 227 261 2,600 -250 Descending Tampa TRACON
Sun 05:59:38 PM 28.0000 -82.7500 180° South 206 237 2,600 -286 Level Tampa TRACON
Sun 06:00:38 PM 27.9333 -82.7500 156° South 184 212 2,000 -600 Descending Tampa TRACON
Sun 06:01:38 PM 27.9000 -82.7333 156° South 175 201 1,400 -550 Descending Tampa TRACON
Sun 06:02:38 PM 27.8667 -82.7167 41° Northeast 127 146 900 -684 Descending Tampa TRACON
Sun 06:03:32 PM 27.9000 -82.6833 41° Northeast 131 151 100 -889 Descending Tampa TRACON

Login

Don't have an account? Register now (free) for customized features, flight alerts, and more!